Time;durP1;ratioP1;P1;durP2;ratioP2;P2;SDS_P1;SDS_P2;PMS_P1;PMS_P2;Temp;Humidity;BMP_temperature;BMP_pressure;BME280_temperature;BME280_humidity;BME280_pressure;Samples;Min_cycle;Max_cycle;Signal;HPM_P1;HPM_P2
2022/08/09 00:00:22;;;;;;;6.43;4.10;;;;;;;16.30;86.94;95908.45;1779750;80;20995;-70
2022/08/09 00:02:51;;;;;;;5.22;3.92;;;;;;;16.37;87.20;95913.97;1779075;81;21046;-70
2022/08/09 00:05:20;;;;;;;7.78;5.08;;;;;;;16.36;86.44;95910.05;1779224;81;20979;-70
2022/08/09 00:07:47;;;;;;;9.73;3.83;;;;;;;16.35;86.39;95910.48;1779165;81;21074;-70
2022/08/09 00:10:14;;;;;;;6.40;3.75;;;;;;;16.31;86.01;95909.34;1779520;81;20987;-70
2022/08/09 00:12:41;;;;;;;13.32;4.50;;;;;;;16.21;86.12;95911.00;1779025;81;21087;-70
2022/08/09 00:15:10;;;;;;;5.03;4.35;;;;;;;16.16;86.79;95917.42;1779061;80;21509;-70
2022/08/09 00:17:36;;;;;;;7.72;4.50;;;;;;;16.18;87.18;95917.77;1779279;80;21006;-70
2022/08/09 00:20:05;;;;;;;10.35;4.00;;;;;;;16.19;87.13;95915.50;1779319;81;21481;-70
2022/08/09 00:22:32;;;;;;;4.53;4.05;;;;;;;16.14;86.94;95921.92;1779567;80;21042;-70
2022/08/09 00:24:58;;;;;;;6.10;4.17;;;;;;;16.12;86.85;95923.76;1779522;80;21003;-70
2022/08/09 00:27:25;;;;;;;5.00;3.62;;;;;;;16.03;86.34;95930.28;1779585;81;20964;-70
2022/08/09 00:29:51;;;;;;;7.53;4.05;;;;;;;16.01;86.87;95936.98;1779132;80;20987;-70
2022/08/09 00:32:18;;;;;;;7.12;4.25;;;;;;;16.03;86.86;95932.05;1779402;80;20979;-70
2022/08/09 00:34:44;;;;;;;6.70;4.00;;;;;;;15.99;87.00;95935.30;1779322;81;21525;-70
2022/08/09 00:37:11;;;;;;;7.17;3.80;;;;;;;15.96;87.06;95936.27;1779447;81;21082;-70
2022/08/09 00:39:38;;;;;;;5.10;3.42;;;;;;;16.00;87.17;95940.58;1779314;80;21513;-70
2022/08/09 00:42:05;;;;;;;4.87;3.90;;;;;;;16.01;86.87;95938.31;1779656;81;20987;-70
2022/08/09 00:44:32;;;;;;;3.72;3.40;;;;;;;15.99;86.76;95945.47;1779544;81;20991;-70
2022/08/09 00:46:59;;;;;;;4.40;3.55;;;;;;;15.95;86.51;95941.63;1779186;80;20975;-70
2022/08/09 00:49:26;;;;;;;6.35;3.83;;;;;;;15.91;86.62;95949.33;1783127;80;20971;-70
2022/08/09 00:51:54;;;;;;;6.15;3.80;;;;;;;15.83;87.29;95958.04;1784918;80;21053;-70
2022/08/09 00:54:21;;;;;;;5.62;4.17;;;;;;;15.83;87.07;95959.38;1785009;80;21023;-70
2022/08/09 00:56:47;;;;;;;4.47;4.08;;;;;;;15.81;87.52;95962.07;1784860;80;20998;-70
2022/08/09 00:59:14;;;;;;;4.75;3.35;;;;;;;15.77;87.21;95971.95;1784930;80;21492;-70
2022/08/09 01:01:42;;;;;;;5.60;3.40;;;;;;;15.71;87.61;95976.13;1784433;80;21493;-70
2022/08/09 01:04:14;;;;;;;5.25;3.35;;;;;;;15.67;87.17;95973.58;1784884;80;21023;-71
2022/08/09 01:07:12;;;;;;;6.30;3.60;;;;;;;15.64;87.28;95971.89;1784156;80;21452;-70
2022/08/09 01:09:52;;;;;;;6.30;3.50;;;;;;;15.65;87.42;95978.97;1784495;80;21030;-70
2022/08/09 01:12:46;;;;;;;4.75;3.67;;;;;;;15.70;87.66;95982.39;1783678;80;20991;-70
2022/08/09 01:15:16;;;;;;;;;;;;;;;15.75;88.17;95983.11;1787500;80;21014;-70
2022/08/09 01:17:57;;;;;;;7.17;4.25;;;;;;;15.80;87.80;95982.96;1784843;80;20385;-70
2022/08/09 01:20:54;;;;;;;6.10;4.20;;;;;;;15.82;88.06;95980.23;1784175;80;21011;-70
2022/08/09 01:23:59;;;;;;;8.95;4.92;;;;;;;15.83;87.48;95984.65;1784783;80;21105;-71
2022/08/09 01:27:04;;;;;;;5.20;4.12;;;;;;;15.82;88.10;95987.74;1784878;80;21125;-70
2022/08/09 01:29:47;;;;;;;14.70;4.25;;;;;;;15.82;89.13;95998.85;1784874;80;21003;-70
2022/08/09 01:32:16;;;;;;;5.78;4.20;;;;;;;15.85;88.47;95991.66;1785035;80;20995;-70
2022/08/09 01:34:46;;;;;;;7.65;3.92;;;;;;;15.87;89.39;95990.26;1784854;80;20991;-70
2022/08/09 01:37:16;;;;;;;4.70;4.03;;;;;;;15.92;89.48;95995.83;1784674;80;21515;-70
2022/08/09 01:39:45;;;;;;;5.70;4.35;;;;;;;16.04;89.44;96002.55;1785021;80;20995;-70
2022/08/09 01:42:14;;;;;;;5.50;4.08;;;;;;;16.11;89.06;95999.23;1784774;80;21477;-70
2022/08/09 01:44:42;;;;;;;8.53;3.77;;;;;;;16.17;88.58;96000.34;1785048;80;21037;-70
2022/08/09 01:47:12;;;;;;;5.83;4.20;;;;;;;16.25;88.61;96003.60;1784693;80;21071;-70
2022/08/09 01:49:40;;;;;;;9.45;4.55;;;;;;;16.29;88.07;96005.72;1784574;80;21030;-70
2022/08/09 01:52:11;;;;;;;16.40;8.03;;;;;;;16.28;88.49;96003.52;1784899;80;20987;-70
2022/08/09 01:54:43;;;;;;;8.00;4.92;;;;;;;16.28;88.50;96007.52;1784822;80;21457;-70
2022/08/09 01:57:15;;;;;;;16.60;9.73;;;;;;;16.33;88.13;96005.56;1785098;80;21034;-70
2022/08/09 01:59:46;;;;;;;10.85;5.90;;;;;;;16.39;88.50;96001.81;1783973;80;21078;-70
2022/08/09 02:02:15;;;;;;;9.00;4.25;;;;;;;16.46;88.71;96003.34;1784483;80;20995;-70
2022/08/09 02:04:43;;;;;;;6.28;3.90;;;;;;;16.54;88.38;95999.94;1784885;80;21003;-70
2022/08/09 02:07:14;;;;;;;4.10;3.67;;;;;;;16.60;88.06;96005.50;1784890;80;21826;-71
2022/08/09 02:09:52;;;;;;;5.50;3.50;;;;;;;16.65;87.91;96004.87;1784686;80;21497;-70
2022/08/09 02:12:21;;;;;;;3.85;3.45;;;;;;;16.73;87.75;96010.82;1784905;80;21043;-71
2022/08/09 02:14:51;;;;;;;5.25;3.42;;;;;;;16.78;87.22;96006.66;1785056;80;21007;-70
2022/08/09 02:17:26;;;;;;;5.05;3.65;;;;;;;16.72;86.49;95996.20;1784597;80;20999;-70
2022/08/09 02:19:53;;;;;;;5.37;3.83;;;;;;;16.66;86.50;96002.16;1784947;80;21046;-70
2022/08/09 02:22:28;;;;;;;6.75;4.00;;;;;;;16.70;86.89;95998.91;1785036;80;21041;-70
2022/08/09 02:24:58;;;;;;;6.62;4.00;;;;;;;16.62;85.92;95995.19;1784808;80;21046;-70
2022/08/09 02:27:29;;;;;;;4.10;3.42;;;;;;;16.61;86.71;96004.12;1784856;80;20997;-70
2022/08/09 02:29:57;;;;;;;7.50;3.77;;;;;;;16.62;86.18;96012.98;1785056;80;21070;-71
2022/08/09 02:32:27;;;;;;;5.37;3.50;;;;;;;16.60;86.09;96002.83;1784611;80;20994;-70
2022/08/09 02:34:58;;;;;;;3.98;2.98;;;;;;;16.54;85.96;95999.07;1758774;80;21055;-71
2022/08/09 02:37:29;;;;;;;5.67;3.35;;;;;;;16.49;85.70;95991.70;1784530;80;21033;-70
2022/08/09 02:40:01;;;;;;;7.00;3.83;;;;;;;16.43;85.84;95997.66;1784720;80;21481;-70
2022/08/09 02:42:36;;;;;;;9.65;3.90;;;;;;;16.48;86.53;95999.27;1783193;80;21019;-70
2022/08/09 02:45:07;;;;;;;7.87;4.75;;;;;;;16.51;86.26;96002.72;1785034;80;21029;-70
2022/08/09 02:47:37;;;;;;;11.05;3.98;;;;;;;16.52;85.86;96003.11;1784786;80;21051;-70
2022/08/09 02:50:18;;;;;;;4.95;3.70;;;;;;;16.46;85.46;95998.02;1784591;80;21003;-70
2022/08/09 02:52:53;;;;;;;3.75;3.45;;;;;;;16.38;85.44;95996.95;1784479;80;21501;-70
2022/08/09 02:55:22;;;;;;;7.80;4.17;;;;;;;16.36;85.63;96000.59;1784817;80;20983;-70
2022/08/09 02:57:52;;;;;;;4.72;3.90;;;;;;;16.35;85.94;96002.83;1784964;80;21026;-70
2022/08/09 03:00:19;;;;;;;5.22;3.77;;;;;;;16.40;86.47;96004.87;1784713;80;21018;-71
2022/08/09 03:02:52;;;;;;;7.70;3.25;;;;;;;16.39;86.34;95999.14;1784663;80;21010;-70
2022/08/09 03:05:19;;;;;;;8.08;3.50;;;;;;;16.41;86.64;96002.16;1784836;80;21042;-70
2022/08/09 03:07:49;;;;;;;5.37;3.50;;;;;;;16.46;86.37;95999.34;1784850;80;21054;-70
2022/08/09 03:10:16;;;;;;;9.70;4.20;;;;;;;16.44;85.99;95995.39;1784990;80;21042;-70
2022/08/09 03:12:44;;;;;;;7.87;3.72;;;;;;;16.36;86.07;95993.94;1784838;80;20995;-70
2022/08/09 03:15:13;;;;;;;7.33;4.15;;;;;;;16.44;86.68;95990.06;1785058;80;20991;-70
2022/08/09 03:17:40;;;;;;;5.78;3.62;;;;;;;16.44;86.06;95991.39;1784863;80;21456;-70
2022/08/09 03:20:09;;;;;;;6.17;4.55;;;;;;;16.40;85.70;95991.12;1784767;80;21535;-70
2022/08/09 03:22:39;;;;;;;6.33;4.40;;;;;;;16.35;85.88;95993.51;1784844;80;21066;-71
2022/08/09 03:25:08;;;;;;;10.88;4.30;;;;;;;16.34;86.71;95985.13;1784959;80;21038;-70
2022/08/09 03:27:37;;;;;;;8.18;4.12;;;;;;;16.41;87.18;95983.98;1784920;80;21010;-70
2022/08/09 03:30:06;;;;;;;5.33;3.50;;;;;;;16.46;86.34;95985.16;1785165;80;21022;-70
2022/08/09 03:32:35;;;;;;;6.22;3.62;;;;;;;16.51;86.95;95988.53;1784844;80;21503;-71
2022/08/09 03:35:03;;;;;;;5.15;3.58;;;;;;;16.58;86.94;95975.38;1784805;80;21006;-71
2022/08/09 03:37:29;;;;;;;7.95;3.52;;;;;;;16.63;86.71;95976.97;1785089;80;21082;-70
2022/08/09 03:39:56;;;;;;;5.12;3.27;;;;;;;16.63;85.88;95972.97;1758881;80;20967;-70
2022/08/09 03:42:23;;;;;;;6.45;3.27;;;;;;;16.63;85.99;95976.08;1784757;80;21003;-70
2022/08/09 03:44:49;;;;;;;4.28;3.33;;;;;;;16.54;85.40;95969.30;1785044;80;21487;-70
2022/08/09 03:47:16;;;;;;;6.78;3.70;;;;;;;16.51;85.67;95971.22;1784884;80;21070;-70
2022/08/09 03:49:43;;;;;;;5.92;3.75;;;;;;;16.55;86.01;95968.36;1782386;80;20972;-70
2022/08/09 03:52:11;;;;;;;5.70;3.83;;;;;;;16.55;85.78;95967.03;1779295;81;21500;-70
2022/08/09 03:54:39;;;;;;;9.73;4.70;;;;;;;16.51;85.66;95972.55;1779239;81;21039;-70
2022/08/09 03:57:10;;;;;;;7.80;4.10;;;;;;;16.47;85.69;95971.77;1779303;81;21029;-70
2022/08/09 03:59:37;;;;;;;9.70;3.77;;;;;;;16.48;86.69;95968.20;1779545;81;21011;-70
2022/08/09 04:02:05;;;;;;;7.17;4.00;;;;;;;16.46;86.80;95972.70;1779421;80;21033;-70
2022/08/09 04:04:32;;;;;;;5.10;4.20;;;;;;;16.48;87.32;95972.64;1779187;81;21110;-70
2022/08/09 04:06:59;;;;;;;10.85;4.40;;;;;;;16.57;87.65;95970.52;1779422;81;21030;-70
2022/08/09 04:09:27;;;;;;;7.42;3.92;;;;;;;16.66;87.51;95970.19;1779144;81;21030;-70
2022/08/09 04:12:07;;;;;;;5.78;4.15;;;;;;;16.76;87.47;95965.88;1751449;81;20995;-70
2022/08/09 04:14:35;;;;;;;6.28;4.00;;;;;;;16.86;87.54;95969.49;1778529;81;21533;-71
2022/08/09 04:17:02;;;;;;;8.38;3.92;;;;;;;16.98;87.25;95973.94;1778920;81;21110;-71
2022/08/09 04:19:29;;;;;;;9.28;3.80;;;;;;;17.04;87.02;95973.26;1779397;80;21042;-71
2022/08/09 04:21:56;;;;;;;14.80;4.40;;;;;;;17.02;86.15;95974.24;1779543;80;20962;-71
2022/08/09 04:24:24;;;;;;;4.55;3.27;;;;;;;17.04;86.72;95970.59;1779008;81;21034;-70
2022/08/09 04:26:52;;;;;;;4.85;4.08;;;;;;;17.05;85.95;95972.79;1779395;81;21062;-70
2022/08/09 04:29:19;;;;;;;6.12;3.98;;;;;;;17.06;86.11;95970.55;1779659;80;21011;-71
2022/08/09 04:31:46;;;;;;;6.20;3.87;;;;;;;17.04;85.82;95965.73;1779564;81;20963;-70
2022/08/09 04:34:13;;;;;;;11.95;5.90;;;;;;;17.06;86.20;95970.08;1779252;80;21042;-71
2022/08/09 04:36:40;;;;;;;9.78;6.67;;;;;;;17.11;86.26;95965.91;1779368;81;21053;-71
2022/08/09 04:39:09;;;;;;;15.32;9.40;;;;;;;17.23;86.72;95965.41;1779276;81;20991;-71
2022/08/09 04:41:36;;;;;;;9.75;5.28;;;;;;;17.29;86.15;95967.84;1779539;81;21018;-71
2022/08/09 04:44:04;;;;;;;6.15;4.95;;;;;;;17.32;85.99;95964.20;1779540;81;21685;-71
2022/08/09 04:46:31;;;;;;;8.03;5.03;;;;;;;17.36;85.78;95968.93;1779415;80;21003;-71
2022/08/09 04:48:58;;;;;;;8.03;4.80;;;;;;;17.42;86.19;95963.38;1779472;80;21492;-71
2022/08/09 04:51:24;;;;;;;4.20;3.80;;;;;;;17.52;86.18;95966.94;1784820;80;21022;-71
2022/08/09 04:53:51;;;;;;;5.03;3.58;;;;;;;17.58;85.39;95967.63;1784851;80;21085;-71
2022/08/09 04:56:17;;;;;;;12.45;5.00;;;;;;;17.61;85.47;95968.35;1784611;80;21551;-71
2022/08/09 04:58:44;;;;;;;10.28;6.50;;;;;;;17.70;84.91;95975.14;1784757;80;21078;-72
2022/08/09 05:01:12;;;;;;;8.00;5.55;;;;;;;17.71;84.46;95970.19;1784596;80;21718;-71
2022/08/09 05:03:39;;;;;;;6.83;4.00;;;;;;;17.74;84.52;95974.09;1785049;80;20999;-71
2022/08/09 05:06:06;;;;;;;7.33;4.42;;;;;;;17.83;84.64;95979.54;1785085;80;21015;-71
2022/08/09 05:08:33;;;;;;;6.40;4.12;;;;;;;17.90;84.86;95976.55;1784810;80;21030;-71
2022/08/09 05:11:01;;;;;;;9.98;4.37;;;;;;;18.02;85.26;95972.52;1785301;80;21062;-71
2022/08/09 05:13:28;;;;;;;8.90;5.25;;;;;;;18.14;85.14;95965.33;1784733;80;21011;-72
2022/08/09 05:15:54;;;;;;;8.23;4.75;;;;;;;18.23;84.83;95964.05;1785049;80;21050;-71
2022/08/09 05:18:21;;;;;;;7.87;5.33;;;;;;;18.30;84.54;95964.67;1784770;80;21500;-72
2022/08/09 05:20:48;;;;;;;8.20;4.90;;;;;;;18.34;84.44;95959.58;1784787;80;21471;-72
2022/08/09 05:23:15;;;;;;;8.48;5.40;;;;;;;18.40;84.39;95958.47;1785112;80;21035;-72
2022/08/09 05:25:41;;;;;;;5.20;4.70;;;;;;;18.50;84.56;95960.66;1785095;80;20936;-72
2022/08/09 05:28:08;;;;;;;8.15;5.10;;;;;;;18.57;84.08;95958.12;1785152;80;20975;-72
2022/08/09 05:30:34;;;;;;;8.90;5.22;;;;;;;18.58;83.35;95962.52;1785151;80;21055;-72
2022/08/09 05:33:01;;;;;;;6.87;4.50;;;;;;;18.60;83.59;95957.11;1784816;80;20971;-71
2022/08/09 05:35:28;;;;;;;6.58;4.85;;;;;;;18.62;83.21;95961.03;1784819;80;21046;-71
2022/08/09 05:37:56;;;;;;;6.10;4.72;;;;;;;18.58;83.08;95954.97;1784757;80;21493;-71
2022/08/09 05:40:24;;;;;;;5.03;3.50;;;;;;;18.67;83.73;95963.92;1784853;80;21049;-71
2022/08/09 05:42:51;;;;;;;6.83;4.53;;;;;;;18.71;83.23;95964.17;1784772;80;21002;-71
2022/08/09 05:45:17;;;;;;;5.83;4.05;;;;;;;18.72;83.01;95967.27;1784955;80;20995;-71
2022/08/09 05:47:45;;;;;;;5.92;4.03;;;;;;;18.80;83.21;95973.64;1784796;80;21002;-71
2022/08/09 05:50:12;;;;;;;4.97;4.47;;;;;;;18.87;83.20;95974.20;1784921;80;20995;-71
2022/08/09 05:52:40;;;;;;;6.95;4.00;;;;;;;18.98;83.48;95977.28;1784570;80;21019;-71
2022/08/09 05:55:09;;;;;;;9.13;4.35;;;;;;;19.00;82.21;95972.73;1784827;80;21014;-72
2022/08/09 05:57:36;;;;;;;6.58;4.67;;;;;;;19.03;82.49;95968.09;1784905;80;21021;-71
2022/08/09 06:00:06;;;;;;;6.87;3.95;;;;;;;19.01;81.69;95967.30;1784915;80;21046;-72
2022/08/09 06:02:35;;;;;;;4.20;3.55;;;;;;;19.12;82.47;95967.27;1784244;80;21489;-73
2022/08/09 06:05:02;;;;;;;4.47;3.62;;;;;;;19.26;82.64;95971.52;1784891;80;21051;-73
2022/08/09 06:07:29;;;;;;;6.58;4.83;;;;;;;19.34;82.14;95959.11;1784847;80;21074;-73
2022/08/09 06:09:57;;;;;;;10.13;4.45;;;;;;;19.46;82.37;95962.55;1784585;80;21011;-73
2022/08/09 06:12:23;;;;;;;5.90;4.03;;;;;;;19.52;81.55;95960.04;1784794;80;21015;-72
2022/08/09 06:14:50;;;;;;;5.55;3.55;;;;;;;19.62;81.61;95962.67;1784918;80;20951;-72
2022/08/09 06:17:17;;;;;;;4.20;3.80;;;;;;;19.66;81.08;95964.27;1784936;80;21014;-72
2022/08/09 06:19:44;;;;;;;12.05;6.22;;;;;;;19.73;81.45;95962.17;1785094;80;20966;-72
2022/08/09 06:22:11;;;;;;;7.80;5.60;;;;;;;19.84;81.45;95967.41;1784680;80;21030;-72
2022/08/09 06:24:38;;;;;;;4.15;3.62;;;;;;;19.95;81.06;95963.33;1784901;80;21009;-72
2022/08/09 06:27:04;;;;;;;4.85;3.50;;;;;;;20.05;80.96;95960.11;1784923;80;20999;-72
2022/08/09 06:29:31;;;;;;;15.95;9.13;;;;;;;20.10;79.74;95964.76;1785069;80;20991;-72
2022/08/09 06:31:57;;;;;;;7.62;5.08;;;;;;;20.06;79.00;95963.67;1784719;80;21485;-72
2022/08/09 06:34:24;;;;;;;8.38;4.20;;;;;;;20.17;79.28;95964.47;1784733;80;20995;-72
2022/08/09 06:36:51;;;;;;;5.28;4.03;;;;;;;20.22;77.83;95963.28;1784747;80;21081;-71
2022/08/09 06:39:18;;;;;;;4.58;4.17;;;;;;;20.23;77.51;95961.47;1784944;80;21014;-72
2022/08/09 06:41:45;;;;;;;6.03;4.50;;;;;;;20.32;77.73;95959.66;1785113;80;20979;-71
2022/08/09 06:44:13;;;;;;;6.45;4.50;;;;;;;20.42;77.72;95962.27;1784595;80;21010;-71
2022/08/09 06:46:40;;;;;;;6.70;3.80;;;;;;;20.53;77.72;95955.00;1784929;80;21449;-71
2022/08/09 06:49:07;;;;;;;5.83;4.50;;;;;;;20.66;76.82;95961.51;1733490;80;21055;-71
2022/08/09 06:51:34;;;;;;;4.80;4.30;;;;;;;20.74;76.91;95964.64;1779389;80;21057;-71
2022/08/09 06:54:01;;;;;;;9.58;4.70;;;;;;;20.83;77.08;95964.61;1779668;80;21472;-71
2022/08/09 06:56:28;;;;;;;8.23;3.98;;;;;;;20.87;76.55;95955.47;1779440;80;20999;-72
2022/08/09 06:58:55;;;;;;;4.70;3.30;;;;;;;20.98;76.73;95960.25;1779616;80;21007;-72
2022/08/09 07:01:21;;;;;;;4.25;3.60;;;;;;;21.07;76.76;95961.10;1779560;80;20976;-71
2022/08/09 07:03:48;;;;;;;5.37;3.50;;;;;;;21.15;76.52;95960.20;1779366;80;20979;-72
2022/08/09 07:06:15;;;;;;;8.45;4.00;;;;;;;21.25;75.03;95963.25;1779255;81;21007;-72
2022/08/09 07:08:41;;;;;;;4.53;3.30;;;;;;;21.31;75.27;95957.53;1779613;80;21006;-72
2022/08/09 07:11:08;;;;;;;3.80;2.80;;;;;;;21.47;75.73;95962.97;1779678;81;20987;-71
2022/08/09 07:13:35;;;;;;;5.75;3.00;;;;;;;21.63;74.94;95960.77;1779311;81;21039;-71
2022/08/09 07:16:03;;;;;;;4.20;3.50;;;;;;;21.75;75.11;95969.47;1779525;80;21556;-71
2022/08/09 07:18:29;;;;;;;4.33;3.05;;;;;;;21.88;74.05;95965.61;1779443;81;21035;-72
2022/08/09 07:20:56;;;;;;;13.35;5.78;;;;;;;21.94;73.63;95966.58;1779063;80;21548;-73
2022/08/09 07:23:23;;;;;;;3.60;3.30;;;;;;;22.00;73.64;95964.91;1779373;81;21062;-73
2022/08/09 07:25:50;;;;;;;5.33;2.95;;;;;;;22.14;73.95;95968.12;1779532;81;20995;-73
2022/08/09 07:28:16;;;;;;;4.70;3.50;;;;;;;22.28;73.53;95970.05;1779405;80;20991;-73
2022/08/09 07:30:43;;;;;;;5.30;3.50;;;;;;;22.39;72.83;95968.91;1779419;81;21015;-73
2022/08/09 07:33:09;;;;;;;4.65;3.65;;;;;;;22.44;72.47;95971.70;1779352;80;21461;-73
2022/08/09 07:35:36;;;;;;;6.87;3.30;;;;;;;22.51;71.68;95974.05;1779311;81;21046;-73
2022/08/09 07:38:03;;;;;;;4.78;3.12;;;;;;;22.47;69.25;95978.23;1779436;81;20991;-73
2022/08/09 07:40:30;;;;;;;9.25;5.95;;;;;;;22.44;70.74;95974.40;1779113;81;21003;-73
2022/08/09 07:42:59;;;;;;;9.75;5.05;;;;;;;22.50;71.37;95974.50;1779550;80;20963;-72
2022/08/09 07:45:28;;;;;;;3.95;3.65;;;;;;;22.51;70.21;95973.56;1779438;80;20991;-71
2022/08/09 07:47:58;;;;;;;5.25;3.50;;;;;;;22.43;70.07;95978.55;1779268;80;20998;-71
2022/08/09 07:50:27;;;;;;;7.22;3.22;;;;;;;22.44;70.68;95970.84;1780964;80;21026;-71
2022/08/09 07:52:55;;;;;;;4.08;3.08;;;;;;;22.49;70.99;95980.85;1784896;80;21561;-71
2022/08/09 07:55:22;;;;;;;7.40;3.75;;;;;;;22.45;69.85;95981.52;1784686;80;21050;-71
2022/08/09 07:57:49;;;;;;;5.10;3.60;;;;;;;22.49;70.15;95978.64;1785048;80;21054;-71
2022/08/09 08:00:19;;;;;;;9.53;3.22;;;;;;;22.53;69.67;95985.55;1784907;80;20991;-71
2022/08/09 08:02:46;;;;;;;8.15;3.33;;;;;;;22.61;69.93;95987.33;1785188;80;21006;-72
2022/08/09 08:05:13;;;;;;;10.03;3.92;;;;;;;22.75;70.00;95987.34;1784734;80;21473;-72
2022/08/09 08:07:39;;;;;;;5.22;3.37;;;;;;;22.94;69.81;95990.28;1784970;80;21517;-71
2022/08/09 08:10:08;;;;;;;17.80;4.53;;;;;;;23.07;69.20;95989.93;1784861;80;21472;-72
2022/08/09 08:12:36;;;;;;;3.72;2.80;;;;;;;23.32;69.01;95988.78;1784995;80;21042;-72
2022/08/09 08:15:04;;;;;;;6.42;3.20;;;;;;;23.60;68.51;95984.34;1784952;80;21003;-72
2022/08/09 08:17:31;;;;;;;4.30;2.90;;;;;;;23.82;67.14;95978.47;1785041;80;21046;-72
2022/08/09 08:19:58;;;;;;;4.22;3.15;;;;;;;23.83;65.08;95973.94;1784779;80;20983;-71
2022/08/09 08:22:24;;;;;;;5.72;2.98;;;;;;;24.03;66.05;95980.23;1784872;80;21376;-71
2022/08/09 08:24:54;;;;;;;5.03;3.42;;;;;;;24.21;66.03;95973.23;1785268;80;20994;-71
2022/08/09 08:27:21;;;;;;;5.45;3.37;;;;;;;24.42;65.30;95977.20;1784929;80;21015;-71
2022/08/09 08:29:48;;;;;;;4.50;3.70;;;;;;;24.49;62.70;95972.27;1784751;80;21078;-71
2022/08/09 08:32:14;;;;;;;6.03;3.35;;;;;;;24.57;63.40;95974.84;1784964;80;21026;-71
2022/08/09 08:34:41;;;;;;;5.55;3.52;;;;;;;24.64;61.04;95971.22;1784857;80;21003;-71
2022/08/09 08:37:08;;;;;;;5.17;2.83;;;;;;;24.67;62.41;95971.50;1784594;80;21054;-71
2022/08/09 08:39:34;;;;;;;3.30;3.00;;;;;;;24.89;62.71;95972.23;1785020;80;21496;-71
2022/08/09 08:42:02;;;;;;;4.50;3.05;;;;;;;24.95;61.53;95969.98;1784991;80;21571;-71
2022/08/09 08:44:29;;;;;;;3.52;2.83;;;;;;;25.14;60.06;95979.48;1784822;80;20986;-71
2022/08/09 08:46:58;;;;;;;3.77;3.30;;;;;;;25.10;59.35;95977.95;1784925;80;21489;-71
2022/08/09 08:49:24;;;;;;;13.08;4.22;;;;;;;25.20;59.58;95984.47;1784818;80;20990;-70
2022/08/09 08:51:52;;;;;;;11.15;3.67;;;;;;;25.34;59.76;95982.16;1784566;80;21010;-71
2022/08/09 08:54:19;;;;;;;3.87;3.10;;;;;;;25.45;59.38;95986.30;1785122;80;21003;-71
2022/08/09 08:56:46;;;;;;;6.53;3.70;;;;;;;25.53;58.08;95984.39;1784896;80;21038;-71
2022/08/09 08:59:13;;;;;;;12.25;3.90;;;;;;;25.52;57.87;95978.13;1784871;80;20963;-71
2022/08/09 09:01:44;;;;;;;5.92;3.10;;;;;;;25.58;58.30;95980.90;1784917;80;20987;-71
2022/08/09 09:04:13;;;;;;;4.62;3.45;;;;;;;25.65;57.13;95976.30;1784809;80;21307;-70
2022/08/09 09:06:42;;;;;;;4.67;3.25;;;;;;;25.70;57.71;95975.93;1785104;80;20971;-71
2022/08/09 09:09:11;;;;;;;6.03;3.55;;;;;;;25.91;57.66;95976.25;1784876;80;21501;-71
2022/08/09 09:11:41;;;;;;;4.65;3.10;;;;;;;26.04;56.33;95968.95;1784771;80;21030;-71
2022/08/09 09:14:18;;;;;;;4.05;3.33;;;;;;;26.25;56.79;95962.91;1784892;80;21461;-71
2022/08/09 09:16:45;;;;;;;6.50;3.33;;;;;;;26.29;56.00;95962.57;1784744;80;21508;-71
2022/08/09 09:19:12;;;;;;;4.25;3.10;;;;;;;26.53;55.16;95966.66;1785045;80;20991;-71
2022/08/09 09:22:06;;;;;;;4.20;2.85;;;;;;;26.54;54.61;95967.02;1784891;80;20980;-71
2022/08/09 09:24:40;;;;;;;6.25;3.50;;;;;;;26.45;54.44;95972.23;1784866;80;21007;-71
2022/08/09 09:27:09;;;;;;;12.73;3.22;;;;;;;26.69;55.83;95970.89;1784742;80;20983;-71
2022/08/09 09:29:43;;;;;;;9.48;3.15;;;;;;;27.06;56.06;95964.81;1784903;80;21453;-71
2022/08/09 09:32:11;;;;;;;12.43;3.65;;;;;;;27.23;55.01;95962.66;1784883;80;21015;-71
2022/08/09 09:34:38;;;;;;;6.60;3.20;;;;;;;27.37;53.42;95956.52;1784917;80;21083;-71
2022/08/09 09:37:06;;;;;;;3.02;2.83;;;;;;;27.47;53.33;95956.65;1784892;80;21457;-71
2022/08/09 09:39:33;;;;;;;3.62;2.98;;;;;;;27.51;53.72;95952.69;1784489;80;21018;-71
2022/08/09 09:42:04;;;;;;;5.58;3.17;;;;;;;27.38;52.17;95954.66;1784973;80;21444;-71
2022/08/09 09:44:33;;;;;;;5.80;2.60;;;;;;;27.22;53.12;95956.89;1784622;80;21066;-71
2022/08/09 09:47:09;;;;;;;6.33;3.30;;;;;;;27.21;54.19;95954.64;1784768;80;21026;-71
2022/08/09 09:49:38;;;;;;;21.27;4.55;;;;;;;27.24;54.29;95954.89;1782784;80;20995;-70
2022/08/09 09:52:09;;;;;;;16.97;3.30;;;;;;;27.31;53.64;95948.01;1784889;80;21014;-71
2022/08/09 09:54:39;;;;;;;15.23;4.12;;;;;;;27.53;53.57;95951.22;1784824;80;21019;-71
2022/08/09 09:57:22;;;;;;;6.75;3.70;;;;;;;27.78;52.09;95956.88;1785215;80;21094;-71
2022/08/09 09:59:52;;;;;;;6.20;3.27;;;;;;;28.16;53.00;95942.89;1784964;80;21489;-71
2022/08/09 10:02:20;;;;;;;18.57;3.58;;;;;;;28.50;53.24;95946.00;1784749;80;21050;-71
2022/08/09 10:05:04;;;;;;;3.45;2.92;;;;;;;28.90;52.24;95942.09;1784666;80;21042;-71
2022/08/09 10:07:30;;;;;;;3.05;2.65;;;;;;;29.20;52.04;95937.23;1784853;80;21015;-71
2022/08/09 10:09:58;;;;;;;4.05;2.70;;;;;;;29.39;50.20;95934.28;1784918;80;21038;-71
2022/08/09 10:12:32;;;;;;;3.47;2.70;;;;;;;29.45;48.37;95931.86;1784861;80;21026;-71
2022/08/09 10:15:14;;;;;;;3.92;3.08;;;;;;;29.47;49.01;95935.30;1784820;80;21016;-71
2022/08/09 10:17:44;;;;;;;7.25;5.30;;;;;;;29.52;48.28;95927.59;1784367;80;21030;-71
2022/08/09 10:20:22;;;;;;;7.62;3.15;;;;;;;29.57;47.52;95923.11;1784975;80;21038;-71
2022/08/09 10:22:54;;;;;;;3.35;3.05;;;;;;;29.50;48.66;95922.79;1784808;80;21472;-71
2022/08/09 10:25:26;;;;;;;3.60;3.30;;;;;;;29.16;48.28;95927.65;1785000;80;21038;-71
2022/08/09 10:27:51;;;;;;;3.02;2.80;;;;;;;28.72;49.86;95928.75;1784097;80;21021;-71
2022/08/09 10:30:18;;;;;;;3.20;2.90;;;;;;;28.16;48.90;95929.83;1784728;80;21022;-71
2022/08/09 10:32:45;;;;;;;11.73;4.70;;;;;;;27.69;50.53;95937.28;1785129;80;20951;-71
2022/08/09 10:35:12;;;;;;;3.25;3.05;;;;;;;27.35;51.68;95937.30;1784856;80;21014;-71
2022/08/09 10:37:39;;;;;;;4.35;3.70;;;;;;;26.97;52.17;95933.91;1784829;80;21460;-71
2022/08/09 10:40:07;;;;;;;9.90;5.60;;;;;;;26.72;53.16;95941.73;1785183;80;20993;-71
2022/08/09 10:42:34;;;;;;;39.33;7.17;;;;;;;26.46;53.82;95950.95;1785023;80;20990;-71
2022/08/09 10:45:10;;;;;;;21.12;4.60;;;;;;;26.15;56.56;95961.87;1785202;80;21025;-71
2022/08/09 10:47:56;;;;;;;13.88;4.20;;;;;;;25.57;61.09;95975.95;1785074;80;20967;-71
2022/08/09 10:51:13;;;;;;;8.48;4.55;;;;;;;24.74;63.33;95989.00;1774951;80;21015;-71
2022/08/09 10:54:09;;;;;;;5.12;3.40;;;;;;;23.89;66.51;96008.09;1785205;80;21070;-71
2022/08/09 10:56:39;;;;;;;7.97;3.35;;;;;;;23.14;66.68;96024.08;1784982;80;21469;-71
2022/08/09 10:59:28;;;;;;;9.05;3.87;;;;;;;22.33;68.21;96029.78;1784778;80;21482;-71
2022/08/09 11:01:55;;;;;;;11.93;3.55;;;;;;;21.68;71.70;96043.28;1784973;80;21006;-70
2022/08/09 11:04:25;;;;;;;5.00;3.60;;;;;;;20.88;73.87;96081.05;1784893;80;20995;-70
2022/08/09 11:07:03;;;;;;;8.78;3.50;;;;;;;20.18;77.14;96096.13;1784911;80;21073;-71
2022/08/09 11:09:48;;;;;;;4.08;2.00;;;;;;;19.56;77.53;96072.72;1785021;80;21053;-71
2022/08/09 11:12:22;;;;;;;3.40;2.17;;;;;;;19.13;75.45;96035.41;1784853;80;21133;-71
2022/08/09 11:15:03;;;;;;;2.85;1.67;;;;;;;18.91;78.41;96022.13;1785160;80;21018;-71
2022/08/09 11:17:35;;;;;;;4.28;1.65;;;;;;;18.64;77.78;96013.48;1759436;80;21528;-69
2022/08/09 11:20:11;;;;;;;3.80;1.90;;;;;;;18.48;77.07;96006.61;1785383;80;21523;-71
2022/08/09 11:22:50;;;;;;;2.90;1.50;;;;;;;18.37;79.88;96007.08;1785289;80;20979;-71
2022/08/09 11:25:30;;;;;;;2.60;1.92;;;;;;;18.33;79.65;96008.13;1785031;80;21018;-71
2022/08/09 11:27:57;;;;;;;3.45;1.67;;;;;;;18.32;78.78;96004.17;1781666;80;21045;-71
2022/08/09 11:30:29;;;;;;;3.17;1.40;;;;;;;18.34;78.06;96000.98;1785068;80;21006;-71
2022/08/09 11:33:19;;;;;;;5.57;1.63;;;;;;;18.40;79.14;95999.41;1785270;80;21009;-71
2022/08/09 11:35:59;;;;;;;3.98;1.40;;;;;;;18.49;79.26;96002.98;1783797;80;21022;-71
2022/08/09 11:38:34;;;;;;;4.00;2.22;;;;;;;18.58;79.85;96003.08;1784986;80;20999;-71
2022/08/09 11:41:15;;;;;;;1.98;1.32;;;;;;;18.64;79.53;96005.94;1784958;80;20991;-71
2022/08/09 11:43:48;;;;;;;3.95;1.85;;;;;;;18.63;79.84;96014.43;1783239;80;21015;-70